Wetterdaten: Donnerstag, 11.10.2007
Datum Zeit Temp. A. Feuchte A. Luftdruck Regen Wind Richtung Richtung Sonnenschein UV Solar Windben
11.10.2007 00:00 7,5 C 88 % 1026,7 hPa 0,0 mm 0,0 km/h (0 Bft) N 0 0 min 0 UV-I 0 W/m 0,0 km/h (0 Bft)
11.10.2007 00:10 7,4 C 88 % 1026,9 hPa 0,0 mm 0,0 km/h (0 Bft) N 0 0 min 0 UV-I 0 W/m 0,0 km/h (0 Bft)
11.10.2007 00:20 7,3 C 88 % 1026,8 hPa 0,0 mm 0,0 km/h (0 Bft) N 0 0 min 0 UV-I 0 W/m 0,0 km/h (0 Bft)
11.10.2007 00:30 7,2 C 88 % 1026,7 hPa 0,0 mm 0,0 km/h (0 Bft) N 0 0 min 0 UV-I 0 W/m 0,0 km/h (0 Bft)
11.10.2007 00:40 7,2 C 88 % 1026,6 hPa 0,0 mm 0,0 km/h (0 Bft) N 0 0 min 0 UV-I 0 W/m 0,0 km/h (0 Bft)
11.10.2007 00:50 7,1 C 88 % 1026,6 hPa 0,0 mm 0,0 km/h (0 Bft) N 0 0 min 0 UV-I 0 W/m 0,0 km/h (0 Bft)
11.10.2007 01:00 7,0 C 89 % 1026,8 hPa 0,0 mm 0,0 km/h (0 Bft) N 0 0 min 0 UV-I 0 W/m 0,0 km/h (0 Bft)
11.10.2007 01:10 6,9 C 88 % 1026,7 hPa 0,0 mm 0,0 km/h (0 Bft) N 0 0 min 0 UV-I 0 W/m 0,0 km/h (0 Bft)
11.10.2007 01:20 6,8 C 88 % 1026,8 hPa 0,0 mm 0,0 km/h (0 Bft) N 0 0 min 0 UV-I 0 W/m 0,0 km/h (0 Bft)
11.10.2007 01:30 6,7 C 88 % 1026,7 hPa 0,0 mm 0,0 km/h (0 Bft) O-NO 67 0 min 0 UV-I 0 W/m 1,6 km/h (1 Bft)
11.10.2007 01:40 6,6 C 89 % 1026,8 hPa 0,0 mm 0,0 km/h (0 Bft) O-NO 67 0 min 0 UV-I 0 W/m 1,6 km/h (1 Bft)
11.10.2007 01:50 6,4 C 89 % 1026,9 hPa 0,0 mm 0,0 km/h (0 Bft) N 0 0 min 0 UV-I 0 W/m 0,0 km/h (0 Bft)
11.10.2007 02:00 6,4 C 89 % 1026,8 hPa 0,0 mm 0,0 km/h (0 Bft) O-NO 67 0 min 0 UV-I 0 W/m 1,6 km/h (1 Bft)
11.10.2007 02:10 6,3 C 89 % 1026,9 hPa 0,0 mm 0,0 km/h (0 Bft) N 0 0 min 0 UV-I 0 W/m 0,0 km/h (0 Bft)
11.10.2007 02:20 6,2 C 89 % 1027,0 hPa 0,0 mm 0,0 km/h (0 Bft) N 0 0 min 0 UV-I 0 W/m 0,0 km/h (0 Bft)
11.10.2007 02:30 6,2 C 89 % 1027,0 hPa 0,0 mm 0,0 km/h (0 Bft) N 0 0 min 0 UV-I 0 W/m 0,0 km/h (0 Bft)
11.10.2007 02:40 6,1 C 89 % 1027,0 hPa 0,0 mm 0,0 km/h (0 Bft) N 0 0 min 0 UV-I 0 W/m 0,0 km/h (0 Bft)
11.10.2007 02:50 5,9 C 90 % 1027,1 hPa 0,0 mm 0,0 km/h (0 Bft) N 0 0 min 0 UV-I 0 W/m 0,0 km/h (0 Bft)
11.10.2007 03:00 5,9 C 89 % 1027,0 hPa 0,0 mm 0,0 km/h (0 Bft) N 0 0 min 0 UV-I 0 W/m 0,0 km/h (0 Bft)
11.10.2007 03:10 5,8 C 89 % 1027,2 hPa 0,0 mm 0,0 km/h (0 Bft) N 0 0 min 0 UV-I 0 W/m 0,0 km/h (0 Bft)
11.10.2007 03:20 5,7 C 90 % 1027,2 hPa 0,0 mm 0,0 km/h (0 Bft) N 0 0 min 0 UV-I 0 W/m 0,0 km/h (0 Bft)
11.10.2007 03:30 5,6 C 90 % 1027,2 hPa 0,0 mm 0,0 km/h (0 Bft) N 0 0 min 0 UV-I 0 W/m 0,0 km/h (0 Bft)
11.10.2007 03:40 5,4 C 90 % 1027,2 hPa 0,0 mm 0,0 km/h (0 Bft) N 0 0 min 0 UV-I 0 W/m 0,0 km/h (0 Bft)
11.10.2007 03:50 5,4 C 90 % 1027,2 hPa 0,0 mm 0,0 km/h (0 Bft) N 0 0 min 0 UV-I 0 W/m 0,0 km/h (0 Bft)
11.10.2007 04:00 5,3 C 90 % 1027,2 hPa 0,0 mm 0,0 km/h (0 Bft) N 0 0 min 0 UV-I 0 W/m 0,0 km/h (0 Bft)
11.10.2007 04:10 5,3 C 90 % 1027,2 hPa 0,0 mm 0,0 km/h (0 Bft) N 0 0 min 0 UV-I 0 W/m 0,0 km/h (0 Bft)
11.10.2007 04:20 5,2 C 90 % 1027,1 hPa 0,0 mm 0,0 km/h (0 Bft) N 0 0 min 0 UV-I 0 W/m 0,0 km/h (0 Bft)
11.10.2007 04:30 5,1 C 90 % 1027,2 hPa 0,0 mm 0,0 km/h (0 Bft) N 0 0 min 0 UV-I 0 W/m 0,0 km/h (0 Bft)
11.10.2007 04:40 5,0 C 90 % 1027,3 hPa 0,0 mm 0,0 km/h (0 Bft) O-NO 67 0 min 0 UV-I 0 W/m 1,6 km/h (1 Bft)
11.10.2007 04:50 4,9 C 90 % 1027,4 hPa 0,0 mm 0,0 km/h (0 Bft) N 0 0 min 0 UV-I 0 W/m 0,0 km/h (0 Bft)
11.10.2007 05:00 4,9 C 90 % 1027,3 hPa 0,0 mm 0,0 km/h (0 Bft) N 0 0 min 0 UV-I 0 W/m 0,0 km/h (0 Bft)
11.10.2007 05:10 4,8 C 90 % 1027,3 hPa 0,0 mm 0,0 km/h (0 Bft) N 0 0 min 0 UV-I 0 W/m 0,0 km/h (0 Bft)
11.10.2007 05:20 4,8 C 91 % 1027,3 hPa 0,0 mm 0,0 km/h (0 Bft) N 0 0 min 0 UV-I 0 W/m 0,0 km/h (0 Bft)
11.10.2007 05:30 4,7 C 90 % 1027,4 hPa 0,0 mm 0,0 km/h (0 Bft) N 0 0 min 0 UV-I 0 W/m 0,0 km/h (0 Bft)
11.10.2007 05:40 4,7 C 90 % 1027,3 hPa 0,0 mm 0,0 km/h (0 Bft) N 0 0 min 0 UV-I 0 W/m 0,0 km/h (0 Bft)
11.10.2007 05:50 4,6 C 91 % 1027,3 hPa 0,0 mm 0,0 km/h (0 Bft) N 0 0 min 0 UV-I 0 W/m 0,0 km/h (0 Bft)
11.10.2007 06:00 4,6 C 91 % 1027,2 hPa 0,0 mm 0,0 km/h (0 Bft) N 0 0 min 0 UV-I 0 W/m 0,0 km/h (0 Bft)
11.10.2007 06:10 4,5 C 91 % 1027,2 hPa 0,0 mm 0,0 km/h (0 Bft) N 0 0 min 0 UV-I 0 W/m 0,0 km/h (0 Bft)
11.10.2007 06:20 4,4 C 91 % 1027,2 hPa 0,0 mm 0,0 km/h (0 Bft) N 0 0 min 0 UV-I 0 W/m 0,0 km/h (0 Bft)
11.10.2007 06:30 4,3 C 91 % 1027,4 hPa 0,0 mm 0,0 km/h (0 Bft) N 0 0 min 0 UV-I 0 W/m 0,0 km/h (0 Bft)
11.10.2007 06:40 4,3 C 91 % 1027,5 hPa 0,0 mm 0,0 km/h (0 Bft) N 0 0 min 0 UV-I 0 W/m 0,0 km/h (0 Bft)
11.10.2007 06:50 4,3 C 91 % 1027,4 hPa 0,0 mm 0,0 km/h (0 Bft) N 0 0 min 0 UV-I 0 W/m 0,0 km/h (0 Bft)
11.10.2007 07:00 4,2 C 91 % 1027,4 hPa 0,0 mm 0,0 km/h (0 Bft) N 0 0 min 0 UV-I 0 W/m 0,0 km/h (0 Bft)
11.10.2007 07:10 4,2 C 91 % 1027,4 hPa 0,0 mm 0,0 km/h (0 Bft) N 0 0 min 0 UV-I 0 W/m 0,0 km/h (0 Bft)
11.10.2007 07:20 4,1 C 91 % 1027,3 hPa 0,0 mm 0,0 km/h (0 Bft) O-NO 67 0 min 0 UV-I 0 W/m 1,6 km/h (1 Bft)
11.10.2007 07:30 4,1 C 91 % 1027,3 hPa 0,0 mm 0,0 km/h (0 Bft) N 0 0 min 0 UV-I 0 W/m 0,0 km/h (0 Bft)
11.10.2007 07:40 4,0 C 91 % 1027,3 hPa 0,0 mm 0,0 km/h (0 Bft) N 0 0 min 0 UV-I 0 W/m 0,0 km/h (0 Bft)
11.10.2007 07:50 4,0 C 91 % 1027,2 hPa 0,0 mm 0,0 km/h (0 Bft) N 0 0 min 0 UV-I 0 W/m 0,0 km/h (0 Bft)
11.10.2007 08:00 3,9 C 91 % 1027,2 hPa 0,0 mm 0,0 km/h (0 Bft) N 0 0 min 0 UV-I 11 W/m 0,0 km/h (0 Bft)
11.10.2007 08:10 3,9 C 91 % 1027,4 hPa 0,0 mm 0,0 km/h (0 Bft) N 0 0 min 0 UV-I 19 W/m 0,0 km/h (0 Bft)
11.10.2007 08:20 3,9 C 91 % 1027,6 hPa 0,0 mm 0,0 km/h (0 Bft) N 0 0 min 0 UV-I 28 W/m 0,0 km/h (0 Bft)
11.10.2007 08:30 3,9 C 92 % 1027,6 hPa 0,0 mm 0,0 km/h (0 Bft) O-NO 67 0 min 0 UV-I 37 W/m 1,6 km/h (1 Bft)
11.10.2007 08:40 4,0 C 92 % 1027,6 hPa 0,0 mm 0,0 km/h (0 Bft) N 0 0 min 0 UV-I 56 W/m 0,0 km/h (0 Bft)
11.10.2007 08:50 4,2 C 93 % 1027,7 hPa 0,0 mm 0,0 km/h (0 Bft) O-NO 67 0 min 0 UV-I 74 W/m 1,6 km/h (1 Bft)
11.10.2007 09:00 4,4 C 93 % 1027,7 hPa 0,0 mm 0,0 km/h (0 Bft) O-NO 67 0 min 0 UV-I 83 W/m 1,6 km/h (1 Bft)
11.10.2007 09:10 4,7 C 93 % 1027,8 hPa 0,0 mm 0,0 km/h (0 Bft) N 0 10 min 0 UV-I 120 W/m 0,0 km/h (0 Bft)
11.10.2007 09:20 5,2 C 94 % 1027,8 hPa 0,0 mm 0,0 km/h (0 Bft) O-NO 67 10 min 0 UV-I 148 W/m 1,6 km/h (1 Bft)
11.10.2007 09:30 6,2 C 94 % 1027,9 hPa 0,0 mm 1,6 km/h (1 Bft) O-NO 67 10 min 0 UV-I 176 W/m 4,8 km/h (1 Bft)
11.10.2007 09:40 7,0 C 93 % 1028,0 hPa 0,0 mm 0,0 km/h (0 Bft) O-NO 67 10 min 1 UV-I 195 W/m 3,2 km/h (1 Bft)
11.10.2007 09:50 7,7 C 91 % 1028,1 hPa 0,0 mm 0,0 km/h (0 Bft) O-NO 67 10 min 1 UV-I 213 W/m 3,2 km/h (1 Bft)
11.10.2007 10:00 8,3 C 90 % 1028,1 hPa 0,0 mm 0,0 km/h (0 Bft) O-NO 67 10 min 1 UV-I 236 W/m 3,2 km/h (1 Bft)
11.10.2007 10:10 8,8 C 90 % 1028,1 hPa 0,0 mm 0,0 km/h (0 Bft) O-NO 67 10 min 1 UV-I 260 W/m 3,2 km/h (1 Bft)
11.10.2007 10:20 9,3 C 86 % 1028,1 hPa 0,0 mm 0,0 km/h (0 Bft) O-NO 67 10 min 1 UV-I 283 W/m 1,6 km/h (1 Bft)
11.10.2007 10:30 9,9 C 87 % 1027,9 hPa 0,0 mm 1,6 km/h (1 Bft) O-NO 67 10 min 1 UV-I 290 W/m 3,2 km/h (1 Bft)
11.10.2007 10:40 10,3 C 84 % 1028,0 hPa 0,0 mm 0,0 km/h (0 Bft) O-NO 67 10 min 1 UV-I 292 W/m 3,2 km/h (1 Bft)
11.10.2007 10:50 10,7 C 81 % 1028,1 hPa 0,0 mm 0,0 km/h (0 Bft) O-NO 67 10 min 2 UV-I 348 W/m 3,2 km/h (1 Bft)
11.10.2007 11:00 11,1 C 79 % 1028,1 hPa 0,0 mm 0,0 km/h (0 Bft) O 90 10 min 2 UV-I 359 W/m 3,2 km/h (1 Bft)
11.10.2007 11:10 11,5 C 80 % 1027,8 hPa 0,0 mm 0,0 km/h (0 Bft) O 90 10 min 2 UV-I 369 W/m 3,2 km/h (1 Bft)
11.10.2007 11:20 12,0 C 78 % 1027,8 hPa 0,0 mm 1,6 km/h (1 Bft) O-SO 112 10 min 2 UV-I 399 W/m 4,8 km/h (1 Bft)
11.10.2007 11:30 12,4 C 76 % 1027,7 hPa 0,0 mm 1,6 km/h (1 Bft) O-SO 112 10 min 2 UV-I 376 W/m 6,4 km/h (2 Bft)
11.10.2007 11:40 12,3 C 76 % 1027,9 hPa 0,0 mm 1,6 km/h (1 Bft) S-SW 202 10 min 2 UV-I 355 W/m 4,8 km/h (1 Bft)
11.10.2007 11:50 12,6 C 75 % 1027,9 hPa 0,0 mm 1,6 km/h (1 Bft) W 270 10 min 2 UV-I 387 W/m 6,4 km/h (2 Bft)
11.10.2007 12:00 12,9 C 74 % 1027,8 hPa 0,0 mm 0,0 km/h (0 Bft) W 270 10 min 2 UV-I 425 W/m 3,2 km/h (1 Bft)
11.10.2007 12:10 13,3 C 71 % 1027,7 hPa 0,0 mm 0,0 km/h (0 Bft) W 270 10 min 2 UV-I 457 W/m 3,2 km/h (1 Bft)
11.10.2007 12:20 13,4 C 72 % 1027,6 hPa 0,0 mm 1,6 km/h (1 Bft) NW 315 10 min 2 UV-I 427 W/m 4,8 km/h (1 Bft)
11.10.2007 12:30 13,3 C 71 % 1027,5 hPa 0,0 mm 1,6 km/h (1 Bft) NW 315 10 min 2 UV-I 452 W/m 4,8 km/h (1 Bft)
11.10.2007 12:40 13,6 C 69 % 1027,5 hPa 0,0 mm 1,6 km/h (1 Bft) N 360 10 min 3 UV-I 485 W/m 4,8 km/h (1 Bft)
11.10.2007 12:50 13,8 C 73 % 1027,2 hPa 0,0 mm 1,6 km/h (1 Bft) N 360 10 min 3 UV-I 492 W/m 3,2 km/h (1 Bft)
11.10.2007 13:00 14,2 C 65 % 1027,2 hPa 0,0 mm 1,6 km/h (1 Bft) W-SW 247 10 min 3 UV-I 490 W/m 6,4 km/h (2 Bft)
11.10.2007 13:10 14,4 C 66 % 1027,0 hPa 0,0 mm 3,2 km/h (1 Bft) W 270 10 min 3 UV-I 464 W/m 6,4 km/h (2 Bft)
11.10.2007 13:20 14,4 C 66 % 1026,8 hPa 0,0 mm 3,2 km/h (1 Bft) W 270 10 min 3 UV-I 492 W/m 8,0 km/h (2 Bft)
11.10.2007 13:30 14,7 C 67 % 1026,6 hPa 0,0 mm 1,6 km/h (1 Bft) W-NW 292 10 min 3 UV-I 504 W/m 8,0 km/h (2 Bft)
11.10.2007 13:40 15,0 C 63 % 1026,4 hPa 0,0 mm 3,2 km/h (1 Bft) SW 225 10 min 3 UV-I 473 W/m 9,7 km/h (2 Bft)
11.10.2007 13:50 15,1 C 62 % 1026,1 hPa 0,0 mm 1,6 km/h (1 Bft) SW 225 10 min 2 UV-I 482 W/m 6,4 km/h (2 Bft)
11.10.2007 14:00 15,2 C 62 % 1026,0 hPa 0,0 mm 3,2 km/h (1 Bft) W 270 10 min 2 UV-I 466 W/m 9,7 km/h (2 Bft)
11.10.2007 14:10 15,3 C 62 % 1025,9 hPa 0,0 mm 3,2 km/h (1 Bft) W 270 10 min 2 UV-I 471 W/m 9,7 km/h (2 Bft)
11.10.2007 14:20 15,6 C 61 % 1025,9 hPa 0,0 mm 3,2 km/h (1 Bft) W 270 10 min 2 UV-I 497 W/m 8,0 km/h (2 Bft)
11.10.2007 14:30 15,8 C 62 % 1025,8 hPa 0,0 mm 3,2 km/h (1 Bft) W-SW 247 10 min 2 UV-I 422 W/m 11,3 km/h (2 Bft)
11.10.2007 14:40 15,7 C 61 % 1025,8 hPa 0,0 mm 3,2 km/h (1 Bft) W-SW 247 10 min 2 UV-I 471 W/m 6,4 km/h (2 Bft)
11.10.2007 14:50 15,6 C 60 % 1025,7 hPa 0,0 mm 3,2 km/h (1 Bft) W-NW 292 10 min 2 UV-I 471 W/m 8,0 km/h (2 Bft)
11.10.2007 15:00 15,6 C 60 % 1025,6 hPa 0,0 mm 3,2 km/h (1 Bft) W-SW 247 10 min 2 UV-I 436 W/m 9,7 km/h (2 Bft)
11.10.2007 15:10 15,7 C 60 % 1025,7 hPa 0,0 mm 3,2 km/h (1 Bft) W-SW 247 10 min 2 UV-I 443 W/m 8,0 km/h (2 Bft)
11.10.2007 15:20 15,8 C 59 % 1025,7 hPa 0,0 mm 4,8 km/h (1 Bft) W-SW 247 10 min 2 UV-I 411 W/m 9,7 km/h (2 Bft)
11.10.2007 15:30 15,7 C 59 % 1025,6 hPa 0,0 mm 4,8 km/h (1 Bft) W 270 10 min 2 UV-I 330 W/m 11,3 km/h (2 Bft)
11.10.2007 15:40 15,7 C 61 % 1025,5 hPa 0,0 mm 4,8 km/h (1 Bft) W-SW 247 10 min 1 UV-I 297 W/m 11,3 km/h (2 Bft)
11.10.2007 15:50 15,6 C 61 % 1025,4 hPa 0,0 mm 2,9 km/h (1 Bft) W-NW 292 0 min 1 UV-I 204 W/m 4,8 km/h (1 Bft)
11.10.2007 16:00 15,4 C 60 % 1025,2 hPa 0,0 mm 3,2 km/h (1 Bft) W 270 0 min 1 UV-I 199 W/m 8,0 km/h (2 Bft)
11.10.2007 16:10 15,3 C 61 % 1025,0 hPa 0,0 mm 4,8 km/h (1 Bft) W 270 0 min 1 UV-I 172 W/m 9,7 km/h (2 Bft)
11.10.2007 16:20 15,2 C 62 % 1024,8 hPa 0,0 mm 3,2 km/h (1 Bft) W 270 0 min 1 UV-I 144 W/m 8,0 km/h (2 Bft)
11.10.2007 16:30 15,0 C 63 % 1024,6 hPa 0,0 mm 1,6 km/h (1 Bft) W 270 0 min 1 UV-I 130 W/m 4,8 km/h (1 Bft)
11.10.2007 16:40 15,0 C 64 % 1024,6 hPa 0,0 mm 3,2 km/h (1 Bft) W 270 0 min 1 UV-I 118 W/m 6,4 km/h (2 Bft)
11.10.2007 16:50 15,0 C 64 % 1024,4 hPa 0,0 mm 3,2 km/h (1 Bft) W 270 0 min 1 UV-I 130 W/m 6,4 km/h (2 Bft)
11.10.2007 17:00 14,9 C 64 % 1024,4 hPa 0,0 mm 1,6 km/h (1 Bft) W 270 10 min 1 UV-I 141 W/m 4,8 km/h (1 Bft)
11.10.2007 17:10 14,9 C 65 % 1024,5 hPa 0,0 mm 1,6 km/h (1 Bft) W 270 10 min 0 UV-I 137 W/m 4,8 km/h (1 Bft)
11.10.2007 17:20 14,8 C 66 % 1024,5 hPa 0,0 mm 1,6 km/h (1 Bft) W 270 10 min 0 UV-I 148 W/m 4,8 km/h (1 Bft)
11.10.2007 17:30 14,8 C 66 % 1024,3 hPa 0,0 mm 1,6 km/h (1 Bft) W 270 10 min 0 UV-I 134 W/m 3,2 km/h (1 Bft)
11.10.2007 17:40 14,7 C 66 % 1024,2 hPa 0,0 mm 1,6 km/h (1 Bft) W 270 10 min 0 UV-I 91 W/m 3,2 km/h (1 Bft)
11.10.2007 17:50 14,6 C 66 % 1024,1 hPa 0,0 mm 1,6 km/h (1 Bft) W 270 10 min 0 UV-I 88 W/m 3,2 km/h (1 Bft)
11.10.2007 18:00 14,4 C 67 % 1024,0 hPa 0,0 mm 0,0 km/h (0 Bft) W 270 10 min 0 UV-I 65 W/m 1,6 km/h (1 Bft)
11.10.2007 18:10 14,2 C 70 % 1023,9 hPa 0,0 mm 0,0 km/h (0 Bft) W 270 10 min 0 UV-I 40 W/m 1,6 km/h (1 Bft)
11.10.2007 18:20 13,7 C 72 % 1023,7 hPa 0,0 mm 0,0 km/h (0 Bft) W 270 10 min 0 UV-I 28 W/m 1,6 km/h (1 Bft)
11.10.2007 18:30 13,3 C 76 % 1023,7 hPa 0,0 mm 0,0 km/h (0 Bft) N 0 10 min 0 UV-I 19 W/m 0,0 km/h (0 Bft)
11.10.2007 18:40 12,7 C 78 % 1023,8 hPa 0,0 mm 0,0 km/h (0 Bft) N 0 0 min 0 UV-I 9 W/m 0,0 km/h (0 Bft)
11.10.2007 18:50 12,0 C 81 % 1023,8 hPa 0,0 mm 0,0 km/h (0 Bft) N 0 0 min 0 UV-I 0 W/m 0,0 km/h (0 Bft)
11.10.2007 19:00 11,8 C 81 % 1023,5 hPa 0,0 mm 0,0 km/h (0 Bft) W 270 0 min 0 UV-I 0 W/m 1,6 km/h (1 Bft)
11.10.2007 19:10 11,8 C 80 % 1023,4 hPa 0,0 mm 0,0 km/h (0 Bft) W 270 0 min 0 UV-I 0 W/m 1,6 km/h (1 Bft)
11.10.2007 19:20 11,6 C 81 % 1023,4 hPa 0,0 mm 0,0 km/h (0 Bft) W 270 0 min 0 UV-I 0 W/m 1,6 km/h (1 Bft)
11.10.2007 19:30 11,3 C 82 % 1023,5 hPa 0,0 mm 0,0 km/h (0 Bft) W 270 0 min 0 UV-I 0 W/m 1,6 km/h (1 Bft)
11.10.2007 19:40 11,1 C 84 % 1023,5 hPa 0,0 mm 0,0 km/h (0 Bft) N 0 0 min 0 UV-I 0 W/m 0,0 km/h (0 Bft)
11.10.2007 19:50 10,9 C 84 % 1023,5 hPa 0,0 mm 0,0 km/h (0 Bft) W 270 0 min 0 UV-I 0 W/m 1,6 km/h (1 Bft)
11.10.2007 20:00 10,9 C 84 % 1023,4 hPa 0,0 mm 0,0 km/h (0 Bft) W 270 0 min 0 UV-I 0 W/m 1,6 km/h (1 Bft)
11.10.2007 20:10 10,8 C 84 % 1023,4 hPa 0,0 mm 0,0 km/h (0 Bft) W 270 0 min 0 UV-I 0 W/m 1,6 km/h (1 Bft)
11.10.2007 20:20 10,8 C 84 % 1023,4 hPa 0,0 mm 0,0 km/h (0 Bft) W 270 0 min 0 UV-I 0 W/m 3,2 km/h (1 Bft)
11.10.2007 20:30 10,6 C 85 % 1023,5 hPa 0,0 mm 0,0 km/h (0 Bft) W 270 0 min 0 UV-I 0 W/m 1,6 km/h (1 Bft)
11.10.2007 20:50 10,2 C 86 % 1023,5 hPa 0,0 mm 0,0 km/h (0 Bft) W 267 0 min 0 UV-I 0 W/m 1,6 km/h (1 Bft)
11.10.2007 21:00 9,8 C 86 % 1023,7 hPa 0,0 mm 0,0 km/h (0 Bft) W 267 0 min 0 UV-I 0 W/m 0,0 km/h (0 Bft)
11.10.2007 21:10 9,6 C 88 % 1023,7 hPa 0,0 mm 0,0 km/h (0 Bft) N 0 0 min 0 UV-I 0 W/m 0,0 km/h (0 Bft)
11.10.2007 21:20 9,6 C 88 % 1023,6 hPa 0,0 mm 0,0 km/h (0 Bft) W 270 0 min 0 UV-I 0 W/m 3,2 km/h (1 Bft)
11.10.2007 21:30 9,8 C 87 % 1023,6 hPa 0,0 mm 0,0 km/h (0 Bft) W 270 0 min 0 UV-I 0 W/m 1,6 km/h (1 Bft)
11.10.2007 21:40 9,9 C 88 % 1023,6 hPa 0,0 mm 0,0 km/h (0 Bft) W 270 0 min 0 UV-I 0 W/m 1,6 km/h (1 Bft)
11.10.2007 21:50 9,8 C 87 % 1023,4 hPa 0,0 mm 0,0 km/h (0 Bft) W 270 0 min 0 UV-I 0 W/m 1,6 km/h (1 Bft)
11.10.2007 22:00 9,6 C 89 % 1023,6 hPa 0,0 mm 0,0 km/h (0 Bft) W 270 0 min 0 UV-I 0 W/m 1,6 km/h (1 Bft)
11.10.2007 22:10 9,5 C 88 % 1023,5 hPa 0,0 mm 0,0 km/h (0 Bft) W 270 0 min 0 UV-I 0 W/m 1,6 km/h (1 Bft)
11.10.2007 22:20 9,3 C 89 % 1023,5 hPa 0,0 mm 0,0 km/h (0 Bft) W 270 0 min 0 UV-I 0 W/m 1,6 km/h (1 Bft)
11.10.2007 22:30 9,3 C 90 % 1023,2 hPa 0,0 mm 0,0 km/h (0 Bft) W 270 0 min 0 UV-I 0 W/m 1,6 km/h (1 Bft)
11.10.2007 22:40 9,3 C 89 % 1023,4 hPa 0,0 mm 0,0 km/h (0 Bft) W 270 0 min 0 UV-I 0 W/m 1,6 km/h (1 Bft)
11.10.2007 22:50 9,2 C 90 % 1023,2 hPa 0,0 mm 0,0 km/h (0 Bft) W 270 0 min 0 UV-I 0 W/m 1,6 km/h (1 Bft)
11.10.2007 23:00 9,2 C 90 % 1023,1 hPa 0,0 mm 0,0 km/h (0 Bft) W 270 0 min 0 UV-I 0 W/m 3,2 km/h (1 Bft)
11.10.2007 23:10 9,1 C 90 % 1023,1 hPa 0,0 mm 0,0 km/h (0 Bft) W 270 0 min 0 UV-I 0 W/m 3,2 km/h (1 Bft)
11.10.2007 23:20 9,1 C 90 % 1023,0 hPa 0,0 mm 0,0 km/h (0 Bft) W 270 0 min 0 UV-I 0 W/m 3,2 km/h (1 Bft)
11.10.2007 23:30 9,1 C 91 % 1022,9 hPa 0,0 mm 0,0 km/h (0 Bft) W 270 0 min 0 UV-I 0 W/m 1,6 km/h (1 Bft)
11.10.2007 23:40 9,1 C 91 % 1022,9 hPa 0,0 mm 1,6 km/h (1 Bft) W 270 0 min 0 UV-I 0 W/m 6,4 km/h (2 Bft)
11.10.2007 23:50 9,2 C 91 % 1022,8 hPa 0,0 mm 1,6 km/h (1 Bft) W-SW 247 0 min 0 UV-I 0 W/m 6,4 km/h (2 Bft)
_ Min-Zeit 07:50 15:20 23:50 - 00:00 - - - - - 00:00
Minimum _ 3,9 C 59 % 1022,8 hPa - 0,0 km/h (0 Bft) - - - - - 0,0 km/h (0 Bft)
_ Max-Zeit 14:30 09:20 09:50 00:00 15:20 - - 09:10 13:20 13:30 14:30
Maximum _ 16,0 C 94 % 1028,1 hPa 0,0 mm 4,8 km/h
W-SW (1 Bft)
- - 10 min 3 UV-I 504 W/m 11,3 km/h
W-SW (2 Bft)
Durchschnitt _ 9,5 C 82 % 1026,0 hPa #0,0 mm 0,7 km/h (0 Bft) W - #8:20 h 2 UV-I 269 W/m 2,7 km/h (1 Bft)